createdAt,value
2018-04-30T00:00:56.934Z,8.23
2018-04-30T00:03:25.208Z,8.80
2018-04-30T00:05:53.518Z,7.13
2018-04-30T00:08:22.012Z,7.90
2018-04-30T00:10:50.297Z,8.10
2018-04-30T00:13:18.558Z,7.67
2018-04-30T00:15:46.745Z,8.13
2018-04-30T00:18:15.052Z,7.20
2018-04-30T00:20:43.322Z,7.73
2018-04-30T00:23:11.638Z,7.13
2018-04-30T00:25:39.907Z,7.80
2018-04-30T00:28:08.203Z,7.30
2018-04-30T00:30:36.508Z,7.23
2018-04-30T00:33:04.770Z,6.33
2018-04-30T00:35:33.056Z,6.63
2018-04-30T00:38:01.331Z,6.40
2018-04-30T00:40:29.639Z,6.43
2018-04-30T00:42:57.943Z,6.17
2018-04-30T00:45:26.251Z,5.83
2018-04-30T00:47:54.503Z,6.50
2018-04-30T00:50:22.857Z,5.43
2018-04-30T00:52:51.091Z,5.93
2018-04-30T00:55:19.380Z,5.13
2018-04-30T00:57:47.678Z,5.30
2018-04-30T01:00:15.952Z,5.43
2018-04-30T01:02:44.238Z,5.77
2018-04-30T01:05:12.523Z,5.30
2018-04-30T01:07:40.808Z,5.60
2018-04-30T01:10:09.115Z,5.30
2018-04-30T01:12:37.382Z,5.40
2018-04-30T01:15:05.711Z,5.43
2018-04-30T01:17:33.972Z,5.40
2018-04-30T01:20:02.258Z,5.60
2018-04-30T01:22:30.547Z,5.33
2018-04-30T01:24:58.832Z,4.93
2018-04-30T01:27:27.135Z,4.33
2018-04-30T01:29:55.445Z,3.93
2018-04-30T01:32:23.689Z,4.20
2018-04-30T01:34:52.022Z,4.70
2018-04-30T01:37:20.291Z,4.53
2018-04-30T01:39:48.578Z,4.40
2018-04-30T01:42:16.863Z,3.70
2018-04-30T01:44:45.147Z,4.70
2018-04-30T01:47:13.438Z,4.87
2018-04-30T01:49:41.725Z,4.20
2018-04-30T01:52:10.073Z,4.30
2018-04-30T01:54:38.334Z,3.87
2018-04-30T01:57:06.622Z,3.47
2018-04-30T01:59:34.887Z,3.60
2018-04-30T02:02:03.198Z,4.23
2018-04-30T02:04:31.529Z,4.00
2018-04-30T02:06:59.744Z,3.47
2018-04-30T02:09:28.027Z,3.33
2018-04-30T02:11:56.231Z,3.53
2018-04-30T02:14:24.497Z,3.97
2018-04-30T02:16:52.811Z,3.60
2018-04-30T02:19:21.086Z,3.40
2018-04-30T02:21:49.370Z,3.43
2018-04-30T02:24:17.651Z,3.60
2018-04-30T02:26:46.138Z,3.40
2018-04-30T02:29:14.482Z,3.90
2018-04-30T02:31:42.737Z,3.70
2018-04-30T02:34:11.023Z,3.43
2018-04-30T02:36:39.314Z,3.40
2018-04-30T02:39:07.618Z,3.80
2018-04-30T02:41:35.923Z,3.50
2018-04-30T02:44:04.189Z,3.30
2018-04-30T02:46:32.459Z,3.40
2018-04-30T02:49:00.765Z,3.50
2018-04-30T02:51:29.043Z,3.67
2018-04-30T02:53:57.340Z,3.57
2018-04-30T02:56:25.619Z,3.37
2018-04-30T02:58:53.916Z,3.70
2018-04-30T03:01:22.210Z,4.00
2018-04-30T03:03:50.491Z,3.50
2018-04-30T03:06:18.804Z,3.10
2018-04-30T03:08:47.063Z,3.37
2018-04-30T03:11:15.359Z,3.37
2018-04-30T03:13:43.647Z,3.00
2018-04-30T03:16:12.062Z,3.40
2018-04-30T03:18:40.336Z,3.60
2018-04-30T03:21:08.614Z,3.00
2018-04-30T03:23:36.920Z,3.10
2018-04-30T03:26:05.267Z,3.10
2018-04-30T03:28:33.488Z,3.60
2018-04-30T03:31:01.785Z,2.97
2018-04-30T03:33:30.863Z,3.60
2018-04-30T03:35:59.170Z,3.40
2018-04-30T03:38:27.442Z,3.40
2018-04-30T03:40:55.748Z,3.33
2018-04-30T03:43:24.060Z,3.30
2018-04-30T03:45:52.327Z,3.60
2018-04-30T03:48:20.623Z,4.37
2018-04-30T03:50:48.904Z,3.30
2018-04-30T03:53:17.191Z,3.33
2018-04-30T03:55:45.471Z,3.50
2018-04-30T03:58:13.742Z,3.93
2018-04-30T04:01:53.940Z,3.47
2018-04-30T04:05:31.174Z,4.20
2018-04-30T04:07:59.443Z,4.20
2018-04-30T04:10:27.727Z,4.80
2018-04-30T04:12:56.019Z,4.27
2018-04-30T04:15:24.227Z,4.47
2018-04-30T04:17:52.491Z,4.03
2018-04-30T04:20:20.786Z,4.00
2018-04-30T04:22:49.087Z,4.00
2018-04-30T04:25:17.368Z,3.80
2018-04-30T04:27:45.662Z,3.83
2018-04-30T04:30:13.930Z,3.83
2018-04-30T04:32:42.228Z,3.70
2018-04-30T04:35:10.528Z,3.73
2018-04-30T04:37:38.827Z,4.30
2018-04-30T04:40:07.087Z,4.27
2018-04-30T04:42:35.388Z,4.77
2018-04-30T04:45:03.716Z,4.17
2018-04-30T04:47:31.997Z,3.53
2018-04-30T04:50:00.263Z,4.43
2018-04-30T04:52:28.531Z,3.53
2018-04-30T04:54:56.831Z,3.60
2018-04-30T04:57:25.152Z,4.03
2018-04-30T04:59:53.421Z,4.13
2018-04-30T05:02:21.753Z,4.20
2018-04-30T05:04:49.988Z,4.27
2018-04-30T05:07:18.282Z,3.30
2018-04-30T05:09:46.572Z,3.77
2018-04-30T05:12:14.863Z,3.90
2018-04-30T05:14:43.138Z,4.47
2018-04-30T05:17:11.415Z,3.60
2018-04-30T05:19:39.744Z,4.23
2018-04-30T05:22:08.056Z,4.23
2018-04-30T05:24:36.307Z,3.90
2018-04-30T05:27:04.537Z,3.60
2018-04-30T05:29:32.850Z,3.67
2018-04-30T05:32:01.147Z,4.27
2018-04-30T05:34:29.507Z,4.03
2018-04-30T05:36:57.747Z,4.80
2018-04-30T05:39:26.050Z,3.30
2018-04-30T05:41:54.486Z,3.77
2018-04-30T05:44:22.942Z,3.13
2018-04-30T05:46:51.262Z,3.43
2018-04-30T05:49:19.576Z,3.47
2018-04-30T05:51:47.783Z,4.00
2018-04-30T05:54:16.074Z,3.40
2018-04-30T05:56:44.352Z,3.77
2018-04-30T05:59:12.641Z,3.83
2018-04-30T06:01:40.919Z,3.67
2018-04-30T06:04:10.071Z,4.33
2018-04-30T06:06:38.286Z,3.90
2018-04-30T06:09:06.531Z,4.03
2018-04-30T06:11:34.741Z,3.47
2018-04-30T06:14:02.959Z,4.10
2018-04-30T06:16:31.175Z,3.57
2018-04-30T06:18:59.362Z,3.80
2018-04-30T06:21:27.580Z,3.60
2018-04-30T06:23:55.763Z,4.40
2018-04-30T06:26:23.959Z,3.60
2018-04-30T06:28:52.383Z,3.77
2018-04-30T06:31:20.619Z,3.27
2018-04-30T06:33:48.818Z,3.70
2018-04-30T06:36:17.075Z,3.30
2018-04-30T06:38:45.324Z,3.37
2018-04-30T06:41:13.552Z,2.87
2018-04-30T06:43:41.772Z,3.00
2018-04-30T06:46:09.986Z,3.10
2018-04-30T06:48:38.227Z,3.50
2018-04-30T06:51:06.508Z,3.10
2018-04-30T06:53:34.802Z,3.70
2018-04-30T06:56:02.989Z,3.13
2018-04-30T06:58:31.186Z,3.47
2018-04-30T07:00:59.411Z,3.40
2018-04-30T07:47:09.578Z,3.10
2018-04-30T07:49:37.879Z,3.00
2018-04-30T07:52:06.071Z,2.87
2018-04-30T07:54:34.401Z,2.97
2018-04-30T07:57:02.642Z,3.10
2018-04-30T07:59:30.891Z,3.90
2018-04-30T08:01:59.115Z,3.60
2018-04-30T08:04:27.307Z,2.83
2018-04-30T08:06:55.566Z,3.30
2018-04-30T08:09:23.775Z,3.20
2018-04-30T08:11:51.979Z,3.20
2018-04-30T08:14:20.235Z,3.10
2018-04-30T08:16:48.483Z,3.20
2018-04-30T08:19:16.678Z,3.30
2018-04-30T08:21:44.879Z,3.30
2018-04-30T08:24:13.090Z,3.00
2018-04-30T08:26:41.335Z,3.40
2018-04-30T08:29:09.712Z,2.83
2018-04-30T08:31:37.950Z,3.30
2018-04-30T08:34:06.283Z,3.50
2018-04-30T08:36:34.562Z,4.37
2018-04-30T08:39:02.725Z,3.37
2018-04-30T08:41:31.151Z,3.27
2018-04-30T08:43:59.344Z,3.00
2018-04-30T08:46:27.615Z,3.17
2018-04-30T08:48:55.899Z,3.10
2018-04-30T08:51:24.171Z,2.60
2018-04-30T08:53:52.414Z,3.03
2018-04-30T08:56:20.746Z,2.80
2018-04-30T08:58:49.039Z,3.17
2018-04-30T09:01:17.215Z,3.03
2018-04-30T09:03:45.489Z,3.93
2018-04-30T09:06:15.717Z,3.47
2018-04-30T09:08:43.906Z,2.70
2018-04-30T09:11:12.143Z,2.97
2018-04-30T09:13:40.647Z,3.17
2018-04-30T09:16:08.868Z,3.50
2018-04-30T09:18:37.111Z,3.97
2018-04-30T09:21:05.315Z,2.90
2018-04-30T09:23:33.570Z,3.50
2018-04-30T09:26:01.856Z,3.70
2018-04-30T09:28:30.115Z,3.43
2018-04-30T09:30:58.515Z,3.13
2018-04-30T09:33:26.801Z,3.37
2018-04-30T09:35:55.020Z,3.17
2018-04-30T09:38:23.251Z,4.43
2018-04-30T09:40:51.458Z,3.20
2018-04-30T09:43:19.739Z,3.70
2018-04-30T09:45:47.939Z,3.13
2018-04-30T09:48:16.244Z,2.97
2018-04-30T09:50:44.494Z,3.17
2018-04-30T09:53:12.840Z,3.27
2018-04-30T09:55:41.067Z,3.47
2018-04-30T09:58:09.294Z,3.07
2018-04-30T10:00:37.535Z,3.00
2018-04-30T10:03:05.877Z,3.00
2018-04-30T10:05:34.061Z,3.10
2018-04-30T10:08:02.256Z,2.80
2018-04-30T10:10:30.458Z,3.33
2018-04-30T10:12:58.698Z,3.00
2018-04-30T10:15:26.918Z,3.40
2018-04-30T10:17:55.200Z,3.20
2018-04-30T10:20:24.495Z,3.40
2018-04-30T10:22:52.732Z,3.10
2018-04-30T10:25:20.934Z,2.90
2018-04-30T10:27:49.158Z,2.90
2018-04-30T10:30:17.363Z,3.10
2018-04-30T10:32:45.620Z,3.00
2018-04-30T10:35:13.882Z,2.83
2018-04-30T10:37:42.350Z,3.50
2018-04-30T10:40:10.565Z,3.40
2018-04-30T10:42:38.778Z,3.63
2018-04-30T10:45:06.982Z,3.00
2018-04-30T10:47:35.182Z,3.57
2018-04-30T10:50:03.511Z,3.50
2018-04-30T10:52:31.790Z,3.13
2018-04-30T10:55:00.115Z,3.00
2018-04-30T10:57:28.355Z,2.90
2018-04-30T10:59:56.583Z,3.67
2018-04-30T11:02:24.794Z,3.13
2018-04-30T11:04:52.998Z,3.40
2018-04-30T11:07:21.636Z,2.83
2018-04-30T11:09:49.994Z,3.83
2018-04-30T11:12:18.290Z,3.73
2018-04-30T11:14:46.431Z,4.07
2018-04-30T11:17:14.643Z,2.93
2018-04-30T11:19:42.872Z,3.40
2018-04-30T11:22:11.210Z,3.30
2018-04-30T11:24:39.459Z,3.00
2018-04-30T11:27:07.731Z,3.40
2018-04-30T11:29:35.958Z,3.43
2018-04-30T11:32:04.222Z,3.20
2018-04-30T11:34:32.534Z,3.50
2018-04-30T11:37:00.743Z,3.23
2018-04-30T11:39:28.996Z,3.23
2018-04-30T11:41:57.245Z,2.60
2018-04-30T11:44:25.583Z,3.27
2018-04-30T11:46:53.795Z,3.40
2018-04-30T11:49:22.000Z,2.93
2018-04-30T11:51:50.204Z,3.30
2018-04-30T11:54:18.614Z,3.10
2018-04-30T11:56:46.851Z,3.20
2018-04-30T11:59:15.127Z,3.77
2018-04-30T12:01:43.344Z,3.23
2018-04-30T12:04:11.538Z,3.23
2018-04-30T12:06:39.746Z,3.07
2018-04-30T12:09:08.050Z,3.23
2018-04-30T12:11:36.262Z,3.47
2018-04-30T12:14:04.545Z,3.37
2018-04-30T12:16:32.771Z,3.50
2018-04-30T12:19:01.022Z,3.67
2018-04-30T12:21:29.231Z,3.10
2018-04-30T12:23:57.427Z,3.60
2018-04-30T12:26:25.960Z,4.03
2018-04-30T12:28:54.219Z,3.90
2018-04-30T12:31:22.446Z,3.07
2018-04-30T12:33:50.651Z,3.17
2018-04-30T12:36:18.848Z,3.07
2018-04-30T12:38:47.067Z,3.47
2018-04-30T12:41:15.364Z,3.30
2018-04-30T12:43:43.578Z,3.43
2018-04-30T12:46:11.812Z,3.10
2018-04-30T12:48:40.006Z,3.00
2018-04-30T12:51:08.236Z,2.90
2018-04-30T12:53:36.451Z,3.80
2018-04-30T12:56:04.785Z,3.80
2018-04-30T12:58:32.990Z,4.03
2018-04-30T13:01:01.191Z,3.13
2018-04-30T13:03:29.411Z,2.80
2018-04-30T13:05:57.612Z,2.93
2018-04-30T13:08:25.819Z,2.90
2018-04-30T13:10:54.089Z,2.60
2018-04-30T13:13:22.327Z,2.77
2018-04-30T13:15:50.559Z,3.40
2018-04-30T13:18:18.784Z,3.57
2018-04-30T13:20:47.001Z,3.50
2018-04-30T13:23:15.255Z,3.40
2018-04-30T13:25:43.472Z,2.97
2018-04-30T13:28:11.673Z,3.40
2018-04-30T13:30:39.930Z,3.27
2018-04-30T13:33:08.127Z,3.13
2018-04-30T13:35:36.323Z,3.93
2018-04-30T13:38:04.539Z,3.57
2018-04-30T13:40:32.746Z,3.00
2018-04-30T13:43:00.954Z,2.93
2018-04-30T13:45:29.161Z,3.23
2018-04-30T13:47:57.358Z,3.13
2018-04-30T13:50:25.580Z,2.90
2018-04-30T13:52:53.873Z,2.90
2018-04-30T13:55:22.087Z,3.37
2018-04-30T13:57:50.384Z,3.07
2018-04-30T14:00:18.711Z,2.90
2018-04-30T14:02:46.897Z,3.17
2018-04-30T14:05:15.131Z,3.10
2018-04-30T14:07:43.318Z,3.47
2018-04-30T14:10:11.503Z,3.20
2018-04-30T14:12:39.726Z,2.80
2018-04-30T14:15:07.935Z,2.90
2018-04-30T14:17:36.147Z,2.90
2018-04-30T14:20:04.419Z,3.27
2018-04-30T14:22:32.671Z,3.50
2018-04-30T14:25:00.867Z,3.47
2018-04-30T14:27:29.056Z,2.87
2018-04-30T14:29:57.261Z,2.60
2018-04-30T14:32:25.475Z,3.03
2018-04-30T14:34:53.679Z,2.90
2018-04-30T14:37:21.879Z,2.93
2018-04-30T14:39:50.080Z,2.80
2018-04-30T14:42:18.393Z,2.97
2018-04-30T14:44:46.587Z,3.20
2018-04-30T14:47:14.798Z,3.47
2018-04-30T14:49:43.006Z,3.37
2018-04-30T14:52:11.215Z,2.90
2018-04-30T14:54:39.556Z,3.53
2018-04-30T14:57:07.738Z,3.97
2018-04-30T14:59:35.970Z,5.00
2018-04-30T15:02:04.173Z,3.10
2018-04-30T15:04:32.819Z,3.50
2018-04-30T15:07:01.063Z,4.03
2018-04-30T15:09:29.357Z,4.13
2018-04-30T15:11:57.559Z,3.03
2018-04-30T15:14:25.814Z,2.83
2018-04-30T15:16:54.095Z,3.07
2018-04-30T15:19:22.391Z,3.50
2018-04-30T15:21:50.667Z,3.70
2018-04-30T15:24:18.948Z,3.63
2018-04-30T15:26:47.282Z,3.20
2018-04-30T15:29:15.483Z,3.37
2018-04-30T15:31:43.682Z,3.57
2018-04-30T15:34:11.868Z,3.83
2018-04-30T15:36:40.088Z,3.67
2018-04-30T15:39:08.386Z,3.77
2018-04-30T15:41:36.665Z,3.00
2018-04-30T15:44:04.819Z,3.80
2018-04-30T15:46:33.006Z,3.50
2018-04-30T15:49:01.231Z,3.97
2018-04-30T15:51:29.427Z,3.20
2018-04-30T15:53:57.615Z,3.57
2018-04-30T15:56:25.826Z,3.60
2018-04-30T15:58:54.036Z,3.40
2018-04-30T16:01:22.251Z,3.60
2018-04-30T16:03:50.462Z,3.30
2018-04-30T16:06:18.666Z,3.43
2018-04-30T16:08:46.887Z,2.70
2018-04-30T16:11:15.125Z,3.70
2018-04-30T16:13:43.330Z,3.17
2018-04-30T16:16:11.570Z,3.80
2018-04-30T16:18:39.779Z,3.63
2018-04-30T16:21:08.046Z,3.10
2018-04-30T16:23:36.167Z,3.57
2018-04-30T16:26:04.368Z,2.93
2018-04-30T16:28:32.650Z,3.67
2018-04-30T16:31:00.838Z,3.70
2018-04-30T16:33:29.042Z,3.67
2018-04-30T16:35:57.251Z,3.70
2018-04-30T16:38:25.479Z,3.97
2018-04-30T16:40:53.691Z,3.47
2018-04-30T16:43:21.878Z,3.40
2018-04-30T16:45:50.090Z,3.50
2018-04-30T16:48:18.334Z,3.50
2018-04-30T16:50:46.589Z,4.43
2018-04-30T16:53:14.853Z,3.80
2018-04-30T16:55:43.142Z,3.80
2018-04-30T16:58:11.420Z,3.43
2018-04-30T17:00:39.716Z,3.37
2018-04-30T17:03:07.959Z,3.50
2018-04-30T17:05:36.234Z,4.40
2018-04-30T17:08:04.572Z,6.87
2018-04-30T17:10:32.829Z,5.40
2018-04-30T17:13:01.097Z,5.53
2018-04-30T17:15:29.405Z,6.40
2018-04-30T17:17:57.675Z,4.80
2018-04-30T17:20:25.879Z,3.40
2018-04-30T17:22:54.111Z,3.83
2018-04-30T17:25:22.439Z,4.00
2018-04-30T17:27:50.643Z,3.80
2018-04-30T17:30:18.848Z,4.37
2018-04-30T17:32:47.107Z,3.00
2018-04-30T17:35:15.310Z,3.40
2018-04-30T17:37:43.510Z,3.80
2018-04-30T17:40:11.696Z,3.63
2018-04-30T17:42:39.906Z,3.80
2018-04-30T17:45:08.175Z,3.60
2018-04-30T17:47:36.378Z,3.80
2018-04-30T17:50:04.614Z,4.03
2018-04-30T17:52:32.898Z,3.57
2018-04-30T17:55:01.096Z,3.93
2018-04-30T17:57:29.294Z,4.23
2018-04-30T17:59:57.521Z,3.40
2018-04-30T18:02:25.699Z,3.60
2018-04-30T18:04:53.883Z,3.47
2018-04-30T18:07:22.074Z,4.00
2018-04-30T18:09:50.263Z,3.70
2018-04-30T18:12:18.511Z,4.43
2018-04-30T18:14:46.691Z,4.53
2018-04-30T18:17:14.894Z,5.07
2018-04-30T18:19:43.102Z,4.20
2018-04-30T18:22:11.379Z,3.67
2018-04-30T18:24:39.639Z,3.97
2018-04-30T18:27:07.918Z,3.67
2018-04-30T18:29:36.235Z,4.40
2018-04-30T18:32:04.531Z,4.77
2018-04-30T18:34:32.730Z,4.73
2018-04-30T18:37:01.008Z,6.27
2018-04-30T18:39:29.466Z,4.50
2018-04-30T18:41:57.767Z,4.80
2018-04-30T18:44:26.130Z,4.30
2018-04-30T18:46:54.253Z,4.20
2018-04-30T18:49:22.574Z,4.03
2018-04-30T18:51:50.818Z,4.23
2018-04-30T18:54:19.099Z,3.83
2018-04-30T18:56:47.399Z,4.33
2018-04-30T18:59:15.608Z,4.30
2018-04-30T19:01:43.815Z,4.00
2018-04-30T19:04:12.009Z,3.77
2018-04-30T19:06:40.207Z,4.57
2018-04-30T19:09:08.412Z,4.40
2018-04-30T19:11:36.587Z,4.40
2018-04-30T19:14:04.788Z,4.03
2018-04-30T19:16:32.982Z,4.27
2018-04-30T19:19:01.181Z,3.77
2018-04-30T19:21:29.410Z,4.37
2018-04-30T19:23:57.605Z,4.20
2018-04-30T19:26:25.788Z,4.80
2018-04-30T19:28:54.010Z,4.17
2018-04-30T19:31:22.223Z,4.70
2018-04-30T19:33:50.485Z,5.00
2018-04-30T19:36:18.630Z,5.73
2018-04-30T19:38:46.824Z,5.50
2018-04-30T19:41:15.025Z,5.00
2018-04-30T19:43:43.251Z,5.40
2018-04-30T19:46:11.439Z,4.03
2018-04-30T19:48:39.646Z,4.00
2018-04-30T19:51:07.926Z,4.20
2018-04-30T19:53:36.182Z,4.17
2018-04-30T19:56:04.544Z,3.43
2018-04-30T19:58:32.762Z,3.93
2018-04-30T20:01:01.750Z,4.00
2018-04-30T20:03:29.955Z,3.63
2018-04-30T20:05:58.271Z,3.90
2018-04-30T20:08:26.537Z,3.73
2018-04-30T20:10:54.818Z,3.73
2018-04-30T20:13:23.043Z,3.60
2018-04-30T20:15:51.287Z,3.97
2018-04-30T20:18:19.531Z,4.03
2018-04-30T20:20:47.791Z,3.37
2018-04-30T20:23:16.095Z,3.87
2018-04-30T20:25:44.431Z,4.10
2018-04-30T20:28:12.975Z,4.00
2018-04-30T20:30:41.247Z,3.50
2018-04-30T20:33:09.534Z,3.43
2018-04-30T20:35:37.838Z,3.77
2018-04-30T20:38:06.186Z,3.77
2018-04-30T20:40:34.455Z,3.80
2018-04-30T20:43:02.684Z,3.83
2018-04-30T20:45:31.011Z,3.83
2018-04-30T20:47:59.267Z,4.03
2018-04-30T20:50:27.667Z,4.00
2018-04-30T20:52:55.895Z,3.83
2018-04-30T20:55:24.163Z,4.33
2018-04-30T20:57:53.090Z,3.70
2018-04-30T21:00:21.316Z,3.47
2018-04-30T21:04:18.776Z,3.60
2018-04-30T21:06:47.382Z,3.20
2018-04-30T21:09:15.715Z,3.83
2018-04-30T21:11:44.002Z,3.90
2018-04-30T21:14:12.310Z,3.90
2018-04-30T21:16:40.598Z,3.60
2018-04-30T21:19:08.843Z,3.63
2018-04-30T21:21:37.239Z,3.90
2018-04-30T21:24:05.639Z,4.70
2018-04-30T21:26:33.947Z,4.10
2018-04-30T21:29:02.204Z,3.50
2018-04-30T21:31:30.506Z,5.67
2018-04-30T21:33:58.792Z,5.07
2018-04-30T21:36:27.099Z,6.80
2018-04-30T21:38:55.371Z,5.43
2018-04-30T21:41:23.691Z,5.40
2018-04-30T21:43:52.127Z,4.50
2018-04-30T21:46:20.525Z,3.87
2018-04-30T21:48:48.867Z,3.67
2018-04-30T21:51:17.167Z,3.87
2018-04-30T21:53:45.451Z,3.40
2018-04-30T21:56:13.710Z,3.70
2018-04-30T21:58:41.967Z,3.50
2018-04-30T22:01:10.272Z,6.73
2018-04-30T22:03:38.575Z,5.30
2018-04-30T22:06:06.792Z,4.60
2018-04-30T22:08:35.106Z,6.77
2018-04-30T22:11:03.345Z,5.30
2018-04-30T22:13:31.631Z,6.10
2018-04-30T22:15:59.893Z,6.10
2018-04-30T22:18:28.564Z,5.43
2018-04-30T22:20:56.962Z,3.80
2018-04-30T22:23:25.392Z,3.73
2018-04-30T22:25:53.819Z,4.37
2018-04-30T22:28:22.065Z,4.03
2018-04-30T22:30:50.725Z,4.40
2018-04-30T22:33:18.958Z,5.20
2018-04-30T22:35:47.436Z,3.90
2018-04-30T22:38:15.896Z,4.27
2018-04-30T22:40:44.271Z,4.30
2018-04-30T22:43:12.600Z,4.80
2018-04-30T22:45:40.985Z,4.57
2018-04-30T22:48:09.272Z,3.47
2018-04-30T22:50:37.576Z,4.13
2018-04-30T22:53:05.932Z,3.43
2018-04-30T22:55:34.157Z,3.30
2018-04-30T22:58:02.503Z,3.70
2018-04-30T23:00:30.763Z,4.00
2018-04-30T23:02:59.103Z,4.40
2018-04-30T23:05:27.650Z,4.17
2018-04-30T23:07:56.443Z,3.77
2018-04-30T23:10:25.258Z,3.90
2018-04-30T23:12:54.146Z,3.47
2018-04-30T23:15:23.031Z,3.33
2018-04-30T23:17:51.748Z,3.50
2018-04-30T23:20:20.172Z,3.50
2018-04-30T23:22:49.175Z,3.73
2018-04-30T23:25:17.751Z,3.30
2018-04-30T23:27:46.066Z,3.90
2018-04-30T23:30:14.363Z,3.90
2018-04-30T23:32:42.571Z,3.70
2018-04-30T23:35:10.890Z,3.87
2018-04-30T23:37:39.179Z,3.40
2018-04-30T23:40:07.459Z,3.60
2018-04-30T23:42:35.739Z,4.07
2018-04-30T23:45:04.031Z,3.63
2018-04-30T23:47:32.340Z,3.40
2018-04-30T23:50:00.603Z,3.50
2018-04-30T23:52:28.892Z,4.20
2018-04-30T23:54:57.175Z,3.40
2018-04-30T23:57:25.486Z,3.70
2018-04-30T23:59:53.810Z,3.93
